createdAt,value
2019-06-07T00:00:52.952Z,15.08
2019-06-07T00:01:58.164Z,15.80
2019-06-07T00:03:03.366Z,15.55
2019-06-07T00:04:09.946Z,16.67
2019-06-07T00:05:17.176Z,15.03
2019-06-07T00:06:24.894Z,15.25
2019-06-07T00:07:28.716Z,14.05
2019-06-07T00:08:35.161Z,15.28
2019-06-07T00:09:40.144Z,15.65
2019-06-07T00:10:44.930Z,15.45
2019-06-07T00:11:49.757Z,16.00
2019-06-07T00:12:54.524Z,14.23
2019-06-07T00:13:59.337Z,14.50
2019-06-07T00:15:04.499Z,13.88
2019-06-07T00:16:11.929Z,14.65
2019-06-07T00:17:17.699Z,14.07
2019-06-07T00:18:25.885Z,13.58
2019-06-07T00:19:28.574Z,13.13
2019-06-07T00:20:33.590Z,13.10
2019-06-07T00:22:13.553Z,13.48
2019-06-07T00:22:44.785Z,14.35
2019-06-07T00:23:49.409Z,13.95
2019-06-07T00:24:54.222Z,14.30
2019-06-07T00:25:58.917Z,15.20
2019-06-07T00:27:04.035Z,15.93
2019-06-07T00:28:08.798Z,15.38
2019-06-07T00:29:15.399Z,15.72
2019-06-07T00:30:39.646Z,15.40
2019-06-07T00:31:27.140Z,15.98
2019-06-07T00:32:31.854Z,16.15
2019-06-07T00:33:36.734Z,16.62
2019-06-07T00:34:41.446Z,16.48
2019-06-07T00:35:46.259Z,15.43
2019-06-07T00:36:50.889Z,15.50
2019-06-07T00:37:55.718Z,14.33
2019-06-07T00:39:00.379Z,13.13
2019-06-07T00:40:16.336Z,13.95
2019-06-07T00:41:15.051Z,13.48
2019-06-07T00:42:23.309Z,13.15
2019-06-07T00:43:28.524Z,12.63
2019-06-07T00:44:33.146Z,10.93
2019-06-07T00:45:37.824Z,12.40
2019-06-07T00:46:42.700Z,11.97
2019-06-07T00:47:47.346Z,11.25
2019-06-07T00:48:52.193Z,12.55
2019-06-07T00:49:56.788Z,11.33
2019-06-07T00:51:02.623Z,11.08
2019-06-07T00:52:07.245Z,10.10
2019-06-07T00:53:16.903Z,10.32
2019-06-07T00:54:21.764Z,8.78
2019-06-07T00:55:27.644Z,8.78
2019-06-07T00:56:32.500Z,9.13
2019-06-07T00:57:37.393Z,8.90
2019-06-07T00:58:42.451Z,8.70
2019-06-07T00:59:47.916Z,7.80
2019-06-07T01:00:52.532Z,8.08
2019-06-07T01:01:57.337Z,7.30
2019-06-07T01:03:01.986Z,8.33
2019-06-07T01:04:07.253Z,7.03
2019-06-07T01:05:15.943Z,8.40
2019-06-07T01:06:22.633Z,8.30
2019-06-07T01:07:25.358Z,8.13
2019-06-07T01:08:30.343Z,7.70
2019-06-07T01:09:35.936Z,7.67
2019-06-07T01:10:52.879Z,8.35
2019-06-07T01:11:48.468Z,8.53
2019-06-07T01:12:53.293Z,8.30
2019-06-07T01:13:58.875Z,8.25
2019-06-07T01:15:04.019Z,9.05
2019-06-07T01:16:08.983Z,8.60
2019-06-07T01:17:39.206Z,8.50
2019-06-07T01:18:39.246Z,8.13
2019-06-07T01:19:39.836Z,7.95
2019-06-07T01:20:44.453Z,9.03
2019-06-07T01:21:49.270Z,7.40
2019-06-07T01:22:53.955Z,7.10
2019-06-07T01:24:11.618Z,6.92
2019-06-07T01:25:08.486Z,6.50
2019-06-07T01:26:13.255Z,5.90
2019-06-07T01:27:18.989Z,6.22
2019-06-07T01:28:26.948Z,6.45
2019-06-07T01:29:31.313Z,5.17
2019-06-07T01:30:36.471Z,5.72
2019-06-07T01:31:41.558Z,5.55
2019-06-07T01:32:46.486Z,5.35
2019-06-07T01:33:51.535Z,5.00
2019-06-07T01:34:56.449Z,5.30
2019-06-07T01:36:01.063Z,5.03
2019-06-07T01:37:05.928Z,5.05
2019-06-07T01:38:10.879Z,4.80
2019-06-07T01:39:16.339Z,4.45
2019-06-07T01:40:27.801Z,3.80
2019-06-07T01:41:30.164Z,4.33
2019-06-07T01:42:34.459Z,4.15
2019-06-07T01:43:39.275Z,4.47
2019-06-07T01:44:43.888Z,4.20
2019-06-07T01:45:48.688Z,4.58
2019-06-07T01:46:53.306Z,4.50
2019-06-07T01:47:58.144Z,4.00
2019-06-07T01:49:03.172Z,4.40
2019-06-07T01:50:11.150Z,3.92
2019-06-07T01:51:15.768Z,4.28
2019-06-07T01:52:23.556Z,4.40
2019-06-07T01:53:29.129Z,4.50
2019-06-07T01:54:57.177Z,4.22
2019-06-07T01:55:39.906Z,5.40
2019-06-07T01:56:44.774Z,4.72
2019-06-07T01:57:49.392Z,5.30
2019-06-07T01:58:54.209Z,5.60
2019-06-07T01:59:59.153Z,5.15
2019-06-07T02:01:04.282Z,4.60
2019-06-07T02:02:08.896Z,4.20
2019-06-07T02:03:14.123Z,4.28
2019-06-07T02:04:21.678Z,4.40
2019-06-07T02:05:28.451Z,4.35
2019-06-07T02:06:32.268Z,4.87
2019-06-07T02:07:37.371Z,4.30
2019-06-07T02:08:41.991Z,4.50
2019-06-07T02:09:46.910Z,4.70
2019-06-07T02:10:51.524Z,4.55
2019-06-07T02:11:56.322Z,4.22
2019-06-07T02:13:00.934Z,5.00
2019-06-07T02:14:07.373Z,5.45
2019-06-07T02:15:12.826Z,4.58
2019-06-07T02:16:17.648Z,4.33
2019-06-07T02:17:25.203Z,5.00
2019-06-07T02:18:33.326Z,4.60
2019-06-07T02:19:35.143Z,4.28
2019-06-07T02:20:39.988Z,3.75
2019-06-07T02:21:44.654Z,4.40
2019-06-07T02:22:49.568Z,4.47
2019-06-07T02:23:54.210Z,4.83
2019-06-07T02:25:34.615Z,4.33
2019-06-07T02:26:05.315Z,4.60
2019-06-07T02:27:10.397Z,4.28
2019-06-07T02:28:30.971Z,4.33
2019-06-07T02:29:22.906Z,4.78
2019-06-07T02:30:52.490Z,5.08
2019-06-07T02:31:39.158Z,6.55
2019-06-07T02:32:40.413Z,9.30
2019-06-07T02:33:45.225Z,9.33
2019-06-07T02:34:50.224Z,10.45
2019-06-07T02:35:54.995Z,18.10
2019-06-07T02:36:59.621Z,17.90
2019-06-07T02:38:04.614Z,18.80
2019-06-07T02:39:09.392Z,18.05
2019-06-07T02:40:14.948Z,16.67
2019-06-07T02:41:19.577Z,11.55
2019-06-07T02:42:26.146Z,10.45
2019-06-07T02:43:36.253Z,7.17
2019-06-07T02:44:39.495Z,5.97
2019-06-07T02:45:44.205Z,5.87
2019-06-07T02:46:50.015Z,5.90
2019-06-07T02:47:54.792Z,5.40
2019-06-07T02:48:59.646Z,6.12
2019-06-07T02:50:09.914Z,5.40
2019-06-07T02:51:15.155Z,5.60
2019-06-07T02:52:19.777Z,4.60
2019-06-07T02:53:25.654Z,4.83
2019-06-07T02:54:36.153Z,4.53
2019-06-07T02:56:26.913Z,4.55
2019-06-07T02:56:57.345Z,5.00
2019-06-07T02:57:50.376Z,4.67
2019-06-07T02:58:54.989Z,4.60
2019-06-07T03:00:16.455Z,3.95
2019-06-07T03:01:09.705Z,3.75
2019-06-07T03:02:15.087Z,3.85
2019-06-07T03:03:22.127Z,4.20
2019-06-07T03:04:29.549Z,3.60
2019-06-07T03:05:38.776Z,3.55
2019-06-07T03:06:44.046Z,3.70
2019-06-07T03:07:49.473Z,3.67
2019-06-07T03:08:55.316Z,4.00
2019-06-07T03:10:01.493Z,4.12
2019-06-07T03:11:07.834Z,4.12
2019-06-07T03:12:13.928Z,3.98
2019-06-07T03:13:20.975Z,3.92
2019-06-07T03:14:28.657Z,3.95
2019-06-07T03:15:47.860Z,3.62
2019-06-07T03:16:54.565Z,3.80
2019-06-07T03:18:08.288Z,4.03
2019-06-07T03:19:17.032Z,4.00
2019-06-07T03:20:23.198Z,3.65
2019-06-07T03:21:33.763Z,3.25
2019-06-07T03:22:41.809Z,3.75
2019-06-07T03:23:47.441Z,3.35
2019-06-07T03:24:53.734Z,3.35
2019-06-07T03:26:00.224Z,3.17
2019-06-07T03:28:12.645Z,3.05
2019-06-07T03:29:17.245Z,3.22
2019-06-07T03:30:38.336Z,3.45
2019-06-07T03:31:32.642Z,4.25
2019-06-07T03:32:42.947Z,3.77
2019-06-07T03:33:45.178Z,3.85
2019-06-07T03:34:48.949Z,3.83
2019-06-07T03:35:53.505Z,3.98
2019-06-07T03:36:58.323Z,4.47
2019-06-07T03:38:02.988Z,4.37
2019-06-07T03:39:07.921Z,3.90
2019-06-07T03:40:12.744Z,3.62
2019-06-07T03:41:17.827Z,3.75
2019-06-07T03:42:22.434Z,3.90
2019-06-07T03:43:27.438Z,3.98
2019-06-07T03:44:35.168Z,3.42
2019-06-07T03:45:41.477Z,3.35
2019-06-07T03:46:44.851Z,3.62
2019-06-07T03:47:49.667Z,3.62
2019-06-07T03:48:54.270Z,3.62
2019-06-07T03:49:59.434Z,3.58
2019-06-07T03:51:06.844Z,3.95
2019-06-07T03:52:10.611Z,4.30
2019-06-07T03:53:15.204Z,3.52
2019-06-07T03:54:20.045Z,3.50
2019-06-07T03:55:24.655Z,3.35
2019-06-07T03:56:31.800Z,3.95
2019-06-07T03:58:24.407Z,2.98
2019-06-07T03:58:49.833Z,3.85
2019-06-07T03:59:48.882Z,5.30
2019-06-07T04:00:53.699Z,7.05
2019-06-07T04:01:58.324Z,12.70
2019-06-07T04:03:03.131Z,13.43
2019-06-07T04:04:07.732Z,8.18
2019-06-07T04:05:12.704Z,9.98
2019-06-07T04:06:17.453Z,7.80
2019-06-07T04:07:22.272Z,6.53
2019-06-07T04:08:28.208Z,5.25
2019-06-07T04:09:37.198Z,4.80
2019-06-07T04:10:55.781Z,4.62
2019-06-07T04:11:46.344Z,4.12
2019-06-07T04:12:50.960Z,3.80
2019-06-07T04:13:55.756Z,3.50
2019-06-07T04:15:00.363Z,3.92
2019-06-07T04:16:07.105Z,3.62
2019-06-07T04:17:11.816Z,3.67
2019-06-07T04:18:16.620Z,3.37
2019-06-07T04:19:21.221Z,3.55
2019-06-07T04:20:26.053Z,3.58
2019-06-07T04:21:31.964Z,3.60
2019-06-07T04:22:41.899Z,3.10
2019-06-07T04:23:45.678Z,3.90
2019-06-07T04:24:50.160Z,3.17
2019-06-07T04:25:55.835Z,3.62
2019-06-07T04:27:00.984Z,2.55
2019-06-07T04:28:05.725Z,2.90
2019-06-07T04:29:32.936Z,2.90
2019-06-07T04:30:39.524Z,2.92
2019-06-07T04:31:45.706Z,2.65
2019-06-07T04:32:50.379Z,2.80
2019-06-07T04:33:55.265Z,3.25
2019-06-07T04:34:59.864Z,4.00
2019-06-07T04:36:05.010Z,4.78
2019-06-07T04:37:10.649Z,4.53
2019-06-07T04:38:15.903Z,3.90
2019-06-07T04:39:23.444Z,4.03
2019-06-07T04:40:30.706Z,5.83
2019-06-07T04:41:39.101Z,5.53
2019-06-07T04:42:46.114Z,6.22
2019-06-07T04:43:51.883Z,4.15
2019-06-07T04:44:58.737Z,3.30
2019-06-07T04:46:04.167Z,2.77
2019-06-07T04:47:11.513Z,2.95
2019-06-07T04:48:16.116Z,2.90
2019-06-07T04:49:23.768Z,2.83
2019-06-07T04:50:33.625Z,2.40
2019-06-07T04:51:41.070Z,2.77
2019-06-07T04:52:45.461Z,2.75
2019-06-07T04:53:50.605Z,2.60
2019-06-07T04:54:55.207Z,2.70
2019-06-07T04:56:00.042Z,2.42
2019-06-07T04:57:04.645Z,2.98
2019-06-07T04:58:09.803Z,2.80
2019-06-07T05:00:00.456Z,3.00
2019-06-07T05:00:58.945Z,2.77
2019-06-07T05:01:43.127Z,2.35
2019-06-07T05:02:47.947Z,2.15
2019-06-07T05:03:52.608Z,2.40
2019-06-07T05:04:57.425Z,2.40
2019-06-07T05:06:02.430Z,2.62
2019-06-07T05:07:07.289Z,2.25
2019-06-07T05:08:27.554Z,2.40
2019-06-07T05:09:18.474Z,2.50
2019-06-07T05:10:23.063Z,2.30
2019-06-07T05:11:28.029Z,2.83
2019-06-07T05:12:35.293Z,2.80
2019-06-07T05:13:43.496Z,4.30
2019-06-07T05:14:45.552Z,2.47
2019-06-07T05:15:50.376Z,2.72
2019-06-07T05:16:54.993Z,2.30
2019-06-07T05:17:59.808Z,2.72
2019-06-07T05:19:04.413Z,3.00
2019-06-07T05:20:09.363Z,2.67
2019-06-07T05:21:13.970Z,3.15
2019-06-07T05:22:18.823Z,2.98
2019-06-07T05:24:03.564Z,2.50
2019-06-07T05:24:31.434Z,2.37
2019-06-07T05:25:39.309Z,2.40
2019-06-07T05:26:43.283Z,2.80
2019-06-07T05:27:47.884Z,3.92
2019-06-07T05:28:52.695Z,3.20
2019-06-07T05:30:09.670Z,3.65
2019-06-07T05:31:07.269Z,3.62
2019-06-07T05:32:11.374Z,3.40
2019-06-07T05:33:16.276Z,2.37
2019-06-07T05:34:20.948Z,2.33
2019-06-07T05:35:26.305Z,1.92
2019-06-07T05:36:31.495Z,2.83
2019-06-07T05:37:38.242Z,2.52
2019-06-07T05:38:45.010Z,2.72
2019-06-07T05:39:49.717Z,3.40
2019-06-07T05:40:54.390Z,5.55
2019-06-07T05:41:59.227Z,3.52
2019-06-07T05:43:03.980Z,2.70
2019-06-07T05:44:12.601Z,2.70
2019-06-07T05:45:18.197Z,2.50
2019-06-07T05:46:23.020Z,2.52
2019-06-07T05:47:27.631Z,2.60
2019-06-07T05:48:32.442Z,2.33
2019-06-07T05:49:39.565Z,2.42
2019-06-07T05:50:55.780Z,2.22
2019-06-07T05:51:50.511Z,2.85
2019-06-07T05:52:55.328Z,2.40
2019-06-07T05:53:59.925Z,2.80
2019-06-07T05:55:05.278Z,2.47
2019-06-07T05:56:10.131Z,2.80
2019-06-07T05:57:15.682Z,2.65
2019-06-07T05:58:20.350Z,3.30
2019-06-07T05:59:25.478Z,2.80
2019-06-07T06:00:30.418Z,2.45
2019-06-07T06:01:45.925Z,2.65
2019-06-07T06:03:00.208Z,2.55
2019-06-07T06:03:48.579Z,2.52
2019-06-07T06:04:53.375Z,2.47
2019-06-07T06:05:58.172Z,2.52
2019-06-07T06:07:04.874Z,2.52
2019-06-07T06:08:11.128Z,2.17
2019-06-07T06:09:16.023Z,2.72
2019-06-07T06:10:23.192Z,3.20
2019-06-07T06:11:48.077Z,2.65
2019-06-07T06:12:46.136Z,2.67
2019-06-07T06:14:04.941Z,2.85
2019-06-07T06:14:57.439Z,2.52
2019-06-07T06:16:02.593Z,2.67
2019-06-07T06:17:09.447Z,2.70
2019-06-07T06:18:15.884Z,2.72
2019-06-07T06:19:21.013Z,2.87
2019-06-07T06:20:32.938Z,3.65
2019-06-07T06:21:32.475Z,3.30
2019-06-07T06:22:39.714Z,2.17
2019-06-07T06:23:45.872Z,2.72
2019-06-07T06:25:30.006Z,2.52
2019-06-07T06:25:58.207Z,2.70
2019-06-07T06:27:18.880Z,3.05
2019-06-07T06:28:13.166Z,2.30
2019-06-07T06:29:22.117Z,2.62
2019-06-07T06:30:31.852Z,2.35
2019-06-07T06:31:41.146Z,2.12
2019-06-07T06:32:52.673Z,3.83
2019-06-07T06:33:53.556Z,2.92
2019-06-07T06:35:00.309Z,2.42
2019-06-07T06:36:11.865Z,2.70
2019-06-07T06:37:17.635Z,2.33
2019-06-07T06:38:23.599Z,2.25
2019-06-07T06:39:28.783Z,2.67
2019-06-07T06:40:33.459Z,2.17
2019-06-07T06:41:50.395Z,4.97
2019-06-07T06:42:48.609Z,2.75
2019-06-07T06:43:52.486Z,2.83
2019-06-07T06:44:57.416Z,2.20
2019-06-07T06:46:02.346Z,2.47
2019-06-07T06:47:07.060Z,2.40
2019-06-07T06:48:11.965Z,2.27
2019-06-07T06:49:16.568Z,2.30
2019-06-07T06:50:21.794Z,2.20
2019-06-07T06:51:26.696Z,1.92
2019-06-07T06:52:31.926Z,2.12
2019-06-07T06:53:36.611Z,2.17
2019-06-07T06:54:46.700Z,2.00
2019-06-07T06:55:49.629Z,2.52
2019-06-07T06:57:17.315Z,2.17
2019-06-07T06:58:00.547Z,2.08
2019-06-07T06:59:37.580Z,2.00
2019-06-07T07:00:14.763Z,1.98
2019-06-07T07:01:19.995Z,2.50
2019-06-07T07:02:24.671Z,2.17
2019-06-07T07:03:57.414Z,2.10
2019-06-07T07:04:35.971Z,2.37
2019-06-07T07:05:40.928Z,2.30
2019-06-07T07:06:48.025Z,2.20
2019-06-07T07:07:53.039Z,2.10
2019-06-07T07:08:59.025Z,2.52
2019-06-07T07:10:08.675Z,2.30
2019-06-07T07:11:13.582Z,1.95
2019-06-07T07:12:18.857Z,1.50
2019-06-07T07:13:23.867Z,2.40
2019-06-07T07:14:28.750Z,1.85
2019-06-07T07:15:33.360Z,2.02
2019-06-07T07:16:38.177Z,1.80
2019-06-07T07:17:53.993Z,1.90
2019-06-07T07:18:52.564Z,2.10
2019-06-07T07:19:55.905Z,2.12
2019-06-07T07:21:00.658Z,1.75
2019-06-07T07:22:05.700Z,2.50
2019-06-07T07:23:11.042Z,2.40
2019-06-07T07:24:21.571Z,2.08
2019-06-07T07:25:22.408Z,2.67
2019-06-07T07:26:27.392Z,2.37
2019-06-07T07:27:32.283Z,2.40
2019-06-07T07:28:37.240Z,2.52
2019-06-07T07:29:44.528Z,2.42
2019-06-07T07:30:55.283Z,2.83
2019-06-07T07:31:57.538Z,2.35
2019-06-07T07:33:02.458Z,2.58
2019-06-07T07:35:14.457Z,2.70
2019-06-07T07:36:38.173Z,2.98
2019-06-07T07:37:25.841Z,2.98
2019-06-07T07:38:31.022Z,2.75
2019-06-07T07:39:35.615Z,2.60
2019-06-07T07:41:07.663Z,2.40
2019-06-07T07:42:10.909Z,2.30
2019-06-07T07:42:56.554Z,2.37
2019-06-07T07:44:06.595Z,2.37
2019-06-07T07:45:07.160Z,1.95
2019-06-07T07:46:28.556Z,2.35
2019-06-07T07:47:18.559Z,5.62
2019-06-07T07:48:23.179Z,3.33
2019-06-07T07:49:28.439Z,2.90
2019-06-07T07:50:33.064Z,2.02
2019-06-07T07:51:38.154Z,2.22
2019-06-07T07:52:45.118Z,2.08
2019-06-07T07:54:01.552Z,2.95
2019-06-07T07:54:58.151Z,2.20
2019-06-07T07:56:02.912Z,2.67
2019-06-07T07:57:07.933Z,1.87
2019-06-07T07:58:13.056Z,1.80
2019-06-07T07:59:17.674Z,1.82
2019-06-07T08:00:50.328Z,1.85
2019-06-07T08:01:29.501Z,2.22
2019-06-07T08:02:34.595Z,2.02
2019-06-07T08:03:39.263Z,2.02
2019-06-07T08:05:52.046Z,2.00
2019-06-07T08:06:56.971Z,1.75
2019-06-07T08:08:05.233Z,1.95
2019-06-07T08:09:09.091Z,1.50
2019-06-07T08:10:13.963Z,2.22
2019-06-07T08:11:18.760Z,1.90
2019-06-07T08:12:23.682Z,1.82
2019-06-07T08:13:28.520Z,1.80
2019-06-07T08:14:33.212Z,2.00
2019-06-07T08:15:38.129Z,1.57
2019-06-07T08:16:42.773Z,1.75
2019-06-07T08:17:51.586Z,1.77
2019-06-07T08:19:00.335Z,1.90
2019-06-07T08:20:02.994Z,2.22
2019-06-07T08:21:23.194Z,2.10
2019-06-07T08:22:13.673Z,1.72
2019-06-07T08:23:18.285Z,2.50
2019-06-07T08:24:23.388Z,1.60
2019-06-07T08:25:28.057Z,1.90
2019-06-07T08:26:33.844Z,1.27
2019-06-07T08:27:38.783Z,1.20
2019-06-07T08:28:43.677Z,1.10
2019-06-07T08:30:08.859Z,1.55
2019-06-07T08:31:03.608Z,1.20
2019-06-07T08:32:01.453Z,1.60
2019-06-07T08:33:25.580Z,1.47
2019-06-07T08:34:12.674Z,1.25
2019-06-07T08:36:02.956Z,1.62
2019-06-07T08:36:40.889Z,1.77
2019-06-07T08:38:13.978Z,1.32
2019-06-07T08:38:48.099Z,1.35
2019-06-07T08:39:46.299Z,1.50
2019-06-07T08:40:56.845Z,1.22
2019-06-07T08:42:11.885Z,1.30
2019-06-07T08:43:18.480Z,1.25
2019-06-07T08:44:23.161Z,1.77
2019-06-07T08:45:18.305Z,1.80
2019-06-07T08:46:23.117Z,1.57
2019-06-07T08:47:27.716Z,1.95
2019-06-07T08:48:32.523Z,1.70
2019-06-07T08:49:37.204Z,1.80
2019-06-07T08:50:42.017Z,1.62
2019-06-07T08:51:46.610Z,1.95
2019-06-07T08:52:54.724Z,2.12
2019-06-07T08:54:18.695Z,1.70
2019-06-07T08:55:05.659Z,1.90
2019-06-07T08:56:11.609Z,1.85
2019-06-07T08:57:21.197Z,1.82
2019-06-07T08:58:23.219Z,1.77
2019-06-07T08:59:28.038Z,2.27
2019-06-07T09:00:49.035Z,1.82
2019-06-07T09:01:40.175Z,1.65
2019-06-07T09:02:44.843Z,1.62
2019-06-07T09:03:49.931Z,2.52
2019-06-07T09:04:57.072Z,2.10
2019-06-07T09:06:16.349Z,2.45
2019-06-07T09:07:18.911Z,2.65
2019-06-07T09:08:29.374Z,2.00
2019-06-07T09:09:20.604Z,2.20
2019-06-07T09:10:25.576Z,1.92
2019-06-07T09:11:30.461Z,1.98
2019-06-07T09:12:35.289Z,2.42
2019-06-07T09:13:39.887Z,2.15
2019-06-07T09:14:59.709Z,2.12
2019-06-07T09:15:51.287Z,1.65
2019-06-07T09:17:01.296Z,1.75
2019-06-07T09:18:40.114Z,1.65
2019-06-07T09:19:10.999Z,1.40
2019-06-07T09:20:35.848Z,1.67
2019-06-07T09:21:22.527Z,2.08
2019-06-07T09:22:27.210Z,2.22
2019-06-07T09:23:32.023Z,2.00
2019-06-07T09:24:36.691Z,2.10
2019-06-07T09:25:56.685Z,2.08
2019-06-07T09:26:51.250Z,2.08
2019-06-07T09:28:00.707Z,1.80
2019-06-07T09:29:08.684Z,2.10
2019-06-07T09:30:18.342Z,2.92
2019-06-07T09:31:18.888Z,2.55
2019-06-07T09:32:23.873Z,2.08
2019-06-07T09:33:28.506Z,2.35
2019-06-07T09:34:33.612Z,2.75
2019-06-07T09:35:39.572Z,2.30
2019-06-07T09:36:44.390Z,2.95
2019-06-07T09:38:07.896Z,2.90
2019-06-07T09:38:58.716Z,2.52
2019-06-07T09:40:15.267Z,3.10
2019-06-07T09:41:09.776Z,2.70
2019-06-07T09:42:14.473Z,2.52
2019-06-07T09:43:59.990Z,2.05
2019-06-07T09:44:26.672Z,2.70
2019-06-07T09:45:31.812Z,3.00
2019-06-07T09:46:36.679Z,3.50
2019-06-07T09:47:41.768Z,3.47
2019-06-07T09:49:10.755Z,3.10
2019-06-07T09:49:56.751Z,3.08
2019-06-07T09:51:09.681Z,2.87
2019-06-07T09:52:10.808Z,2.50
2019-06-07T09:53:22.695Z,3.17
2019-06-07T09:55:02.973Z,3.25
2019-06-07T09:55:27.266Z,3.98
2019-06-07T09:56:32.117Z,3.05
2019-06-07T09:57:36.997Z,3.60
2019-06-07T09:58:52.918Z,2.58
2019-06-07T09:59:48.144Z,3.08
2019-06-07T10:00:53.055Z,2.50
2019-06-07T10:01:59.618Z,2.50
2019-06-07T10:03:16.434Z,2.08
2019-06-07T10:04:28.450Z,2.08
2019-06-07T10:05:18.444Z,2.50
2019-06-07T10:06:23.414Z,2.65
2019-06-07T10:07:31.614Z,2.30
2019-06-07T10:09:56.978Z,1.90
2019-06-07T10:10:09.891Z,2.20
2019-06-07T10:10:48.947Z,1.90
2019-06-07T10:11:54.118Z,2.50
2019-06-07T10:12:59.532Z,2.30
2019-06-07T10:14:04.899Z,2.10
2019-06-07T10:15:09.785Z,2.60
2019-06-07T10:16:14.686Z,2.52
2019-06-07T10:17:19.285Z,2.90
2019-06-07T10:18:24.444Z,2.40
2019-06-07T10:19:29.044Z,2.50
2019-06-07T10:20:33.914Z,2.80
2019-06-07T10:21:38.670Z,2.62
2019-06-07T10:22:43.480Z,2.50
2019-06-07T10:23:48.152Z,2.50
2019-06-07T10:24:53.040Z,2.55
2019-06-07T10:25:57.675Z,3.00
2019-06-07T10:27:03.686Z,3.02
2019-06-07T10:28:12.217Z,2.50
2019-06-07T10:29:17.098Z,3.10
2019-06-07T10:30:23.079Z,3.30
2019-06-07T10:31:27.989Z,2.45
2019-06-07T10:32:36.992Z,2.70
2019-06-07T10:33:43.759Z,3.05
2019-06-07T10:34:48.777Z,3.20
2019-06-07T10:35:54.136Z,2.35
2019-06-07T10:36:58.869Z,2.30
2019-06-07T10:38:04.575Z,2.42
2019-06-07T10:39:11.213Z,2.15
2019-06-07T10:40:17.952Z,2.00
2019-06-07T10:41:22.924Z,1.98
2019-06-07T10:42:27.748Z,2.70
2019-06-07T10:43:32.343Z,2.90
2019-06-07T10:44:37.160Z,3.52
2019-06-07T10:45:43.462Z,2.92
2019-06-07T10:46:48.297Z,3.20
2019-06-07T10:47:54.150Z,3.10
2019-06-07T10:48:59.019Z,3.08
2019-06-07T10:50:04.440Z,2.90
2019-06-07T10:51:12.472Z,2.37
2019-06-07T10:52:17.087Z,2.87
2019-06-07T10:53:22.240Z,2.30
2019-06-07T10:54:30.817Z,2.80
2019-06-07T10:55:36.144Z,2.55
2019-06-07T10:56:40.823Z,2.80
2019-06-07T10:57:45.706Z,2.30
2019-06-07T10:58:50.302Z,2.25
2019-06-07T10:59:55.414Z,2.27
2019-06-07T11:01:00.363Z,2.10
2019-06-07T11:02:05.780Z,2.25
2019-06-07T11:03:11.726Z,3.10
2019-06-07T11:04:16.958Z,2.65
2019-06-07T11:05:21.693Z,2.22
2019-06-07T11:06:26.507Z,2.65
2019-06-07T11:07:31.192Z,2.83
2019-06-07T11:08:36.032Z,2.30
2019-06-07T11:09:40.681Z,2.58
2019-06-07T11:10:45.494Z,2.20
2019-06-07T11:11:50.111Z,3.02
2019-06-07T11:12:54.993Z,2.92
2019-06-07T11:13:59.664Z,2.50
2019-06-07T11:15:08.822Z,2.30
2019-06-07T11:16:15.487Z,2.47
2019-06-07T11:17:20.560Z,2.47
2019-06-07T11:18:25.435Z,2.42
2019-06-07T11:19:30.259Z,2.35
2019-06-07T11:20:34.859Z,3.02
2019-06-07T11:21:39.946Z,2.70
2019-06-07T11:22:44.568Z,2.65
2019-06-07T11:23:49.387Z,2.27
2019-06-07T11:24:53.989Z,2.62
2019-06-07T11:25:59.174Z,2.30
2019-06-07T11:27:03.865Z,2.60
2019-06-07T11:28:08.742Z,2.65
2019-06-07T11:29:14.991Z,2.67
2019-06-07T11:30:20.000Z,2.83
2019-06-07T11:31:24.663Z,2.65
2019-06-07T11:32:29.562Z,2.65
2019-06-07T11:33:34.438Z,3.20
2019-06-07T11:34:39.259Z,3.25
2019-06-07T11:35:44.126Z,2.45
2019-06-07T11:36:51.090Z,3.00
2019-06-07T11:37:55.338Z,3.05
2019-06-07T11:39:00.225Z,2.70
2019-06-07T11:40:23.004Z,2.35
2019-06-07T11:41:13.589Z,2.92
2019-06-07T11:42:20.060Z,2.92
2019-06-07T11:43:24.965Z,2.70
2019-06-07T11:44:29.638Z,2.80
2019-06-07T11:45:34.464Z,3.00
2019-06-07T11:46:39.062Z,2.87
2019-06-07T11:47:43.980Z,3.10
2019-06-07T11:48:48.849Z,2.50
2019-06-07T11:49:53.670Z,2.42
2019-06-07T11:50:58.557Z,2.70
2019-06-07T11:52:03.394Z,2.58
2019-06-07T11:53:08.600Z,2.60
2019-06-07T11:54:14.102Z,2.40
2019-06-07T11:55:19.797Z,3.60
2019-06-07T11:56:24.617Z,4.10
2019-06-07T11:57:29.238Z,3.02
2019-06-07T11:58:35.038Z,2.77
2019-06-07T11:59:39.674Z,2.62
2019-06-07T12:00:44.538Z,2.62
2019-06-07T12:01:49.207Z,2.70
2019-06-07T12:02:54.114Z,2.10
2019-06-07T12:03:58.994Z,2.08
2019-06-07T12:05:04.479Z,2.72
2019-06-07T12:06:11.930Z,2.37
2019-06-07T12:07:17.730Z,2.80
2019-06-07T12:08:23.280Z,2.40
2019-06-07T12:09:28.233Z,2.87
2019-06-07T12:10:42.142Z,3.12
2019-06-07T12:11:39.364Z,2.30
2019-06-07T12:12:44.030Z,2.80
2019-06-07T12:13:49.262Z,2.77
2019-06-07T12:14:53.919Z,5.80
2019-06-07T12:15:58.771Z,2.60
2019-06-07T12:17:03.373Z,4.20
2019-06-07T12:18:09.209Z,3.00
2019-06-07T12:19:15.441Z,2.95
2019-06-07T12:20:21.374Z,2.60
2019-06-07T12:21:25.979Z,2.17
2019-06-07T12:22:30.893Z,2.62
2019-06-07T12:23:35.489Z,2.10
2019-06-07T12:24:40.306Z,1.98
2019-06-07T12:25:44.907Z,2.00
2019-06-07T12:26:49.792Z,1.85
2019-06-07T12:27:54.407Z,2.05
2019-06-07T12:28:59.496Z,1.87
2019-06-07T12:30:09.998Z,2.10
2019-06-07T12:31:15.015Z,2.00
2019-06-07T12:32:19.840Z,2.00
2019-06-07T12:33:24.692Z,2.00
2019-06-07T12:34:29.575Z,2.22
2019-06-07T12:35:34.692Z,7.45
2019-06-07T12:36:39.572Z,11.00
2019-06-07T12:37:45.064Z,3.98
2019-06-07T12:38:49.995Z,2.12
2019-06-07T12:39:55.078Z,2.00
2019-06-07T12:41:00.924Z,2.20
2019-06-07T12:42:05.877Z,1.90
2019-06-07T12:43:10.768Z,2.52
2019-06-07T12:44:16.612Z,2.67
2019-06-07T12:45:41.356Z,2.50
2019-06-07T12:46:28.735Z,2.20
2019-06-07T12:47:33.330Z,1.82
2019-06-07T12:48:38.308Z,1.80
2019-06-07T12:49:43.201Z,2.42
2019-06-07T12:50:48.578Z,1.98
2019-06-07T12:51:53.562Z,6.25
2019-06-07T12:52:58.455Z,1.87
2019-06-07T12:54:03.075Z,2.12
2019-06-07T12:55:08.928Z,1.90
2019-06-07T12:56:13.599Z,3.05
2019-06-07T12:57:20.043Z,16.02
2019-06-07T12:58:32.620Z,2.08
2019-06-07T12:59:31.332Z,2.00
2019-06-07T13:00:36.278Z,2.22
2019-06-07T13:01:41.100Z,2.20
2019-06-07T13:02:45.702Z,1.92
2019-06-07T13:03:51.392Z,1.80
2019-06-07T13:04:56.286Z,4.50
2019-06-07T13:06:01.127Z,2.30
2019-06-07T13:07:05.952Z,2.00
2019-06-07T13:08:10.771Z,1.62
2019-06-07T13:09:15.753Z,1.62
2019-06-07T13:10:22.061Z,2.35
2019-06-07T13:11:30.178Z,2.05
2019-06-07T13:12:33.460Z,1.92
2019-06-07T13:13:38.087Z,2.30
2019-06-07T13:14:42.900Z,1.50
2019-06-07T13:15:47.514Z,2.05
2019-06-07T13:16:52.404Z,1.70
2019-06-07T13:17:57.178Z,5.70
2019-06-07T13:19:02.081Z,2.05
2019-06-07T13:20:08.895Z,1.80
2019-06-07T13:21:16.182Z,1.80
2019-06-07T13:22:22.408Z,1.90
2019-06-07T13:23:29.496Z,1.67
2019-06-07T13:24:34.613Z,1.67
2019-06-07T13:25:46.151Z,2.05
2019-06-07T13:26:46.107Z,2.00
2019-06-07T13:27:50.952Z,1.85
2019-06-07T13:28:55.544Z,1.80
2019-06-07T13:30:09.241Z,2.15
2019-06-07T13:31:07.007Z,1.70
2019-06-07T13:32:11.956Z,1.65
2019-06-07T13:33:16.902Z,1.70
2019-06-07T13:34:24.297Z,1.80
2019-06-07T13:35:29.968Z,1.70
2019-06-07T13:36:34.788Z,1.92
2019-06-07T13:37:39.388Z,1.70
2019-06-07T13:38:44.259Z,1.70
2019-06-07T13:39:48.876Z,1.95
2019-06-07T13:40:54.756Z,1.57
2019-06-07T13:41:59.371Z,2.10
2019-06-07T13:43:04.528Z,1.60
2019-06-07T13:44:09.447Z,1.67
2019-06-07T13:45:14.701Z,1.80
2019-06-07T13:46:20.919Z,2.05
2019-06-07T13:47:27.349Z,1.80
2019-06-07T13:48:32.162Z,2.12
2019-06-07T13:49:36.997Z,2.00
2019-06-07T13:50:41.666Z,1.82
2019-06-07T13:51:46.551Z,1.70
2019-06-07T13:52:51.217Z,1.87
2019-06-07T13:53:56.336Z,2.15
2019-06-07T13:55:02.517Z,1.95
2019-06-07T13:56:07.663Z,1.80
2019-06-07T13:57:12.265Z,1.92
2019-06-07T13:58:18.659Z,2.00
2019-06-07T13:59:24.524Z,1.82
2019-06-07T14:00:29.403Z,1.50
2019-06-07T14:01:34.138Z,1.72
2019-06-07T14:02:38.970Z,1.98
2019-06-07T14:03:43.572Z,2.00
2019-06-07T14:04:48.552Z,1.77
2019-06-07T14:05:53.214Z,2.00
2019-06-07T14:06:58.304Z,1.82
2019-06-07T14:08:04.304Z,1.80
2019-06-07T14:09:09.608Z,1.75
2019-06-07T14:10:16.674Z,1.98
2019-06-07T14:11:21.515Z,2.30
2019-06-07T14:12:26.352Z,1.90
2019-06-07T14:13:32.498Z,1.87
2019-06-07T14:14:37.113Z,2.40
2019-06-07T14:15:41.931Z,2.33
2019-06-07T14:16:46.529Z,2.25
2019-06-07T14:17:51.420Z,1.82
2019-06-07T14:18:57.089Z,1.90
2019-06-07T14:20:01.979Z,1.80
2019-06-07T14:21:07.672Z,2.00
2019-06-07T14:22:13.728Z,1.95
2019-06-07T14:23:18.355Z,2.12
2019-06-07T14:24:23.234Z,2.12
2019-06-07T14:25:29.369Z,1.80
2019-06-07T14:26:34.285Z,1.90
2019-06-07T14:27:39.049Z,2.17
2019-06-07T14:28:44.205Z,1.72
2019-06-07T14:29:48.829Z,2.25
2019-06-07T14:30:53.645Z,2.12
2019-06-07T14:31:58.246Z,2.20
2019-06-07T14:33:03.357Z,2.00
2019-06-07T14:34:09.178Z,2.22
2019-06-07T14:35:14.653Z,2.00